Terminal Aerodrome Forecast
Issued by NWS North Platte, NE

Home | Current Version | Previous Version | Graphics & Text | Print | Product List | Glossary On
Versions: 1 2 3 4 5 6 7 8 9 10 11 12 13 14 15 16
000
FTUS43 KLBF 192324
TAFVTN
TAF
KVTN 192324Z 2000/2024 22007KT P6SM SCT250
     FM200900 25008KT P6SM FEW250
     FM201700 27012KT P6SM SCT250
     FM202100 30013G19KT P6SM BKN250=

USA.gov is the U.S. government's official web portal to all federal, state and local government web resources and services.